Time;durP1;ratioP1;P1;durP2;ratioP2;P2;SDS_P1;SDS_P2;PMS_P1;PMS_P2;Temp;Humidity;BMP_temperature;BMP_pressure;BME280_temperature;BME280_humidity;BME280_pressure;Samples;Min_cycle;Max_cycle;Signal;HPM_P1;HPM_P2
2023/03/21 00:00:43;;;;;;;45.40;18.60;;;8.30;99.90;;;;;;5072464;28;20469;-57
2023/03/21 00:03:09;;;;;;;52.03;19.00;;;8.40;99.90;;;;;;5071254;28;20036;-56
2023/03/21 00:05:48;;;;;;;52.70;19.58;;;8.40;99.90;;;;;;5072171;28;20044;-56
2023/03/21 00:08:15;;;;;;;51.60;19.77;;;8.40;99.90;;;;;;5072360;28;20048;-56
2023/03/21 00:10:40;;;;;;;70.50;21.17;;;8.50;99.90;;;;;;5071899;28;20032;-56
2023/03/21 00:13:06;;;;;;;69.75;20.42;;;8.50;99.90;;;;;;5087576;28;20043;-56
2023/03/21 00:15:32;;;;;;;71.40;22.95;;;8.60;99.90;;;;;;5072535;28;20156;-56
2023/03/21 00:18:02;;;;;;;84.75;22.45;;;8.40;99.90;;;;;;5076751;28;20096;-56
2023/03/21 00:20:38;;;;;;;105.75;25.77;;;9.40;99.90;;;;;;5074035;28;20059;-56
2023/03/21 00:23:04;;;;;;;107.75;25.02;;;9.40;99.90;;;;;;5076022;28;20048;-56
2023/03/21 00:25:31;;;;;;;125.55;27.25;;;8.50;99.90;;;;;;5075360;28;22132;-56
2023/03/21 00:27:57;;;;;;;118.10;26.13;;;8.50;99.90;;;;;;5077161;28;20044;-56
2023/03/21 00:30:23;;;;;;;116.47;26.23;;;8.60;99.90;;;;;;5075595;28;20211;-56
2023/03/21 00:32:49;;;;;;;133.82;27.70;;;8.40;99.90;;;;;;5075448;28;20048;-56
2023/03/21 00:35:15;;;;;;;133.88;28.15;;;8.40;99.90;;;;;;5075245;28;20063;-56
2023/03/21 00:37:41;;;;;;;146.48;28.25;;;8.40;99.90;;;;;;5075502;28;20116;-56
2023/03/21 00:40:09;;;;;;;161.30;31.45;;;8.40;99.90;;;;;;5075073;28;20116;-56
2023/03/21 00:42:35;;;;;;;158.50;29.40;;;8.70;99.90;;;;;;5074336;28;20131;-56
2023/03/21 00:45:01;;;;;;;181.23;30.67;;;8.40;99.90;;;;;;5074802;28;20079;-56
2023/03/21 00:47:27;;;;;;;157.43;29.75;;;9.10;99.90;;;;;;5074611;28;20466;-56
2023/03/21 00:49:53;;;;;;;232.88;35.47;;;8.40;99.90;;;;;;5073562;28;20048;-56
2023/03/21 00:52:19;;;;;;;133.98;28.83;;;8.50;99.90;;;;;;5073734;28;20089;-56
2023/03/21 00:54:45;;;;;;;161.93;29.73;;;8.30;99.90;;;;;;5073878;28;21744;-55
2023/03/21 00:57:11;;;;;;;167.32;31.48;;;8.60;99.90;;;;;;5075136;28;20040;-56
2023/03/21 00:59:37;;;;;;;192.63;32.05;;;8.40;99.90;;;;;;5074019;28;20036;-56
2023/03/21 01:02:06;;;;;;;196.23;31.33;;;8.40;99.90;;;;;;5074230;28;20040;-56
2023/03/21 01:04:33;;;;;;;157.95;29.23;;;8.60;99.90;;;;;;5073283;28;20032;-56
2023/03/21 01:06:59;;;;;;;156.73;29.65;;;8.80;99.90;;;;;;5074913;28;21878;-56
2023/03/21 01:09:25;;;;;;;183.73;32.38;;;8.40;99.90;;;;;;5074806;28;20916;-56
2023/03/21 01:11:52;;;;;;;134.13;28.00;;;8.50;99.90;;;;;;5073929;28;20075;-56
2023/03/21 01:14:20;;;;;;;117.60;26.52;;;9.10;99.90;;;;;;5074224;28;20085;-56
2023/03/21 01:16:45;;;;;;;102.45;25.00;;;8.30;99.90;;;;;;5074071;28;20056;-56
2023/03/21 01:19:15;;;;;;;71.57;21.77;;;8.40;99.90;;;;;;5073487;28;20109;-56
2023/03/21 01:21:41;;;;;;;74.63;20.55;;;8.50;99.90;;;;;;5074726;28;20096;-56
2023/03/21 01:24:07;;;;;;;75.32;20.00;;;8.40;99.90;;;;;;5074010;28;20032;-56
2023/03/21 01:26:33;;;;;;;70.68;21.40;;;8.60;99.90;;;;;;5073280;28;20048;-56
2023/03/21 01:28:59;;;;;;;76.30;20.33;;;8.50;99.90;;;;;;5071478;28;20552;-56
2023/03/21 01:31:25;;;;;;;80.45;21.38;;;8.40;99.90;;;;;;5075009;28;20048;-56
2023/03/21 01:33:50;;;;;;;72.22;20.38;;;9.20;99.90;;;;;;5073212;28;20126;-56
2023/03/21 01:36:23;;;;;;;96.15;23.35;;;8.70;99.90;;;;;;5075363;28;20744;-56
2023/03/21 01:38:49;;;;;;;90.70;22.88;;;8.40;99.90;;;;;;5074506;28;20084;-55
2023/03/21 01:41:24;;;;;;;109.18;25.20;;;8.60;99.90;;;;;;5073493;28;20044;-57
2023/03/21 01:43:51;;;;;;;82.68;23.65;;;8.40;99.90;;;;;;5074593;28;20058;-56
2023/03/21 01:46:40;;;;;;;95.07;24.85;;;8.50;99.90;;;;;;5074421;28;20036;-55
2023/03/21 01:49:13;;;;;;;106.05;26.02;;;8.40;99.90;;;;;;5072242;28;20047;-56
2023/03/21 01:51:43;;;;;;;89.50;26.27;;;8.50;99.90;;;;;;5074329;28;20489;-57
2023/03/21 01:54:23;;;;;;;84.38;25.45;;;9.30;99.90;;;;;;5075081;28;20036;-56
2023/03/21 01:56:52;;;;;;;85.35;26.90;;;8.30;99.90;;;;;;5074872;28;20056;-56
2023/03/21 01:59:37;;;;;;;73.93;24.65;;;8.50;99.90;;;;;;5073321;28;20416;-56
2023/03/21 02:02:06;;;;;;;74.05;24.45;;;8.60;99.90;;;;;;5073215;28;20056;-57
2023/03/21 02:04:34;;;;;;;69.53;24.65;;;8.60;99.90;;;;;;5072196;28;20069;-57
2023/03/21 02:07:16;;;;;;;76.95;25.02;;;8.70;99.90;;;;;;5075083;28;20685;-56
2023/03/21 02:09:46;;;;;;;63.70;24.13;;;8.50;99.90;;;;;;5072820;28;20568;-56
2023/03/21 02:12:12;;;;;;;61.28;23.52;;;8.40;99.90;;;;;;5072405;28;20097;-57
2023/03/21 02:14:38;;;;;;;71.70;25.77;;;10.50;99.90;;;;;;5072729;28;20040;-57
2023/03/21 02:17:31;;;;;;;62.63;23.60;;;8.50;99.90;;;;;;5073857;28;20050;-57
2023/03/21 02:20:20;;;;;;;65.28;23.45;;;8.50;99.90;;;;;;5071843;28;20052;-58
2023/03/21 02:23:17;;;;;;;60.65;23.63;;;8.80;99.90;;;;;;5073369;28;20052;-57
2023/03/21 02:26:00;;;;;;;54.33;22.70;;;8.60;99.90;;;;;;5072099;28;20393;-57
2023/03/21 02:28:36;;;;;;;53.30;22.88;;;8.60;99.90;;;;;;5072300;28;20044;-57
2023/03/21 02:31:11;;;;;;;59.67;22.88;;;8.50;99.90;;;;;;5072886;28;20445;-57
2023/03/21 02:34:06;;;;;;;53.08;22.83;;;8.50;99.90;;;;;;5072360;28;20082;-56
2023/03/21 02:36:50;;;;;;;42.53;20.48;;;8.40;99.90;;;;;;5068734;28;20519;-57
2023/03/21 02:39:29;;;;;;;43.10;20.27;;;8.60;99.90;;;;;;5072232;28;20093;-57
2023/03/21 02:42:25;;;;;;;46.60;21.00;;;8.60;99.90;;;;;;5073562;28;20036;-56
2023/03/21 02:45:04;;;;;;;41.08;20.35;;;8.60;99.90;;;;;;5072419;28;21577;-57
2023/03/21 02:47:41;;;;;;;45.10;21.10;;;8.60;99.90;;;;;;5072332;28;20052;-57
2023/03/21 02:50:13;;;;;;;37.25;19.75;;;8.50;99.90;;;;;;5072761;28;20619;-57
2023/03/21 02:52:40;;;;;;;;;;;8.40;99.90;;;;;;5074522;28;20032;-57
2023/03/21 02:55:14;;;;;;;40.05;20.67;;;8.60;99.90;;;;;;5072878;28;19923;-57
2023/03/21 02:57:45;;;;;;;40.30;21.50;;;8.40;99.90;;;;;;5072937;28;20052;-57
2023/03/21 03:00:16;;;;;;;45.47;21.52;;;8.50;99.90;;;;;;5073062;28;20040;-57
2023/03/21 03:02:42;;;;;;;40.72;21.00;;;8.60;99.90;;;;;;5072997;28;20054;-57
2023/03/21 03:05:14;;;;;;;40.67;22.08;;;8.70;99.90;;;;;;5072289;28;20032;-57
2023/03/21 03:07:52;;;;;;;44.92;22.42;;;8.70;99.90;;;;;;5073706;28;20044;-57
2023/03/21 03:10:40;;;;;;;46.95;23.23;;;8.80;99.90;;;;;;5074529;28;20464;-58
2023/03/21 03:13:15;;;;;;;42.63;22.45;;;8.40;99.90;;;;;;5073223;28;20098;-57
2023/03/21 03:15:51;;;;;;;44.50;22.90;;;8.60;99.90;;;;;;5073451;28;20048;-56
2023/03/21 03:18:40;;;;;;;45.38;21.80;;;8.70;99.90;;;;;;5071618;28;20497;-57
2023/03/21 03:21:31;;;;;;;45.33;21.83;;;8.60;99.90;;;;;;5071823;28;20054;-57
2023/03/21 03:24:21;;;;;;;49.47;22.35;;;8.50;99.90;;;;;;5071450;28;20039;-57
2023/03/21 03:27:01;;;;;;;48.47;23.02;;;8.50;99.90;;;;;;5071033;28;20447;-57
2023/03/21 03:29:29;;;;;;;48.40;21.98;;;8.60;99.90;;;;;;5071430;28;20067;-57
2023/03/21 03:32:04;;;;;;;50.03;22.35;;;8.50;99.90;;;;;;5071524;28;20134;-57
2023/03/21 03:34:41;;;;;;;53.00;22.25;;;8.60;99.90;;;;;;5071332;28;20547;-57
2023/03/21 03:37:13;;;;;;;55.33;22.83;;;8.70;99.90;;;;;;5073827;28;20039;-57
2023/03/21 03:39:40;;;;;;;;;;;8.60;99.90;;;;;;5071727;28;20063;-57
2023/03/21 03:42:30;;;;;;;50.97;22.70;;;8.60;99.90;;;;;;5072904;28;20015;-57
2023/03/21 03:44:56;;;;;;;52.20;22.00;;;8.80;99.90;;;;;;5072231;28;20656;-57
2023/03/21 03:47:42;;;;;;;50.60;22.45;;;8.70;99.90;;;;;;5072767;28;20607;-57
2023/03/21 03:50:25;;;;;;;43.28;20.30;;;8.30;99.90;;;;;;5070847;28;20051;-56
2023/03/21 03:53:05;;;;;;;59.92;23.10;;;8.70;99.90;;;;;;5075650;28;20044;-57
2023/03/21 03:55:33;;;;;;;51.58;20.63;;;8.80;99.90;;;;;;5076260;28;20050;-57
2023/03/21 03:58:00;;;;;;;53.53;20.75;;;8.50;99.90;;;;;;5076206;28;20033;-57
2023/03/21 04:00:30;;;;;;;57.05;21.00;;;8.70;99.90;;;;;;5075047;28;20032;-57
2023/03/21 04:02:57;;;;;;;59.38;21.75;;;8.60;99.90;;;;;;5075745;28;20404;-57
2023/03/21 04:05:23;;;;;;;54.72;20.50;;;8.50;99.90;;;;;;5074520;28;20047;-57
2023/03/21 04:07:49;;;;;;;47.30;19.80;;;8.70;99.90;;;;;;5077109;28;20386;-57
2023/03/21 04:10:16;;;;;;;51.35;18.38;;;8.80;99.90;;;;;;5075413;28;20097;-57
2023/03/21 04:12:42;;;;;;;53.10;19.65;;;8.80;99.90;;;;;;5075222;28;20039;-57
2023/03/21 04:15:08;;;;;;;46.10;19.45;;;8.60;99.90;;;;;;5090019;28;20036;-57
2023/03/21 04:17:34;;;;;;;43.60;16.95;;;8.50;99.90;;;;;;5075387;28;20059;-57
2023/03/21 04:20:00;;;;;;;43.03;18.20;;;9.20;99.90;;;;;;5075328;28;20109;-57
2023/03/21 04:22:25;;;;;;;44.63;16.90;;;8.60;99.90;;;;;;5076588;28;20083;-57
2023/03/21 04:24:52;;;;;;;39.88;17.20;;;8.60;99.90;;;;;;5076131;28;20044;-57
2023/03/21 04:27:17;;;;;;;38.40;16.92;;;8.60;99.90;;;;;;5074241;28;20115;-57
2023/03/21 04:29:43;;;;;;;39.08;16.05;;;8.70;99.90;;;;;;5076671;28;20484;-57
2023/03/21 04:32:15;;;;;;;41.80;17.13;;;8.60;99.90;;;;;;5076533;28;20050;-57
2023/03/21 04:34:48;;;;;;;41.33;16.10;;;8.60;99.90;;;;;;5074153;28;20039;-56
2023/03/21 04:37:18;;;;;;;48.90;17.90;;;8.70;99.90;;;;;;5076924;28;20040;-57
2023/03/21 04:39:45;;;;;;;44.38;16.63;;;8.70;99.90;;;;;;5075793;28;20054;-56
2023/03/21 04:42:13;;;;;;;47.85;16.67;;;8.70;99.90;;;;;;5074404;28;20525;-56
2023/03/21 04:44:39;;;;;;;46.22;17.15;;;9.60;99.90;;;;;;5075515;28;20047;-57
2023/03/21 04:47:05;;;;;;;52.78;18.48;;;8.60;99.90;;;;;;5076491;28;20036;-57
2023/03/21 04:49:31;;;;;;;49.88;17.77;;;8.50;99.90;;;;;;5075077;28;20556;-57
2023/03/21 04:51:57;;;;;;;46.22;18.48;;;8.70;99.90;;;;;;5075762;28;20130;-56
2023/03/21 04:54:23;;;;;;;55.67;18.83;;;8.60;99.90;;;;;;5075047;28;20529;-57
2023/03/21 04:56:50;;;;;;;44.75;17.52;;;8.60;99.90;;;;;;5074054;28;20082;-57
2023/03/21 04:59:17;;;;;;;68.90;21.05;;;8.80;99.90;;;;;;5075594;28;20472;-57
2023/03/21 05:01:43;;;;;;;64.47;19.92;;;8.80;99.90;;;;;;5075591;28;20051;-56
2023/03/21 05:04:11;;;;;;;49.08;18.23;;;8.90;99.90;;;;;;5075875;28;20043;-55
2023/03/21 05:06:36;;;;;;;51.30;17.98;;;8.80;99.90;;;;;;5076042;28;20048;-56
2023/03/21 05:09:06;;;;;;;59.05;20.23;;;8.70;99.90;;;;;;5076066;28;20047;-54
2023/03/21 05:11:36;;;;;;;45.58;18.60;;;9.30;99.90;;;;;;5075366;28;20535;-54
2023/03/21 05:14:07;;;;;;;49.97;19.83;;;8.60;99.90;;;;;;5075387;28;20615;-55
2023/03/21 05:16:35;;;;;;;48.47;20.17;;;8.60;99.90;;;;;;5074792;28;20520;-55
2023/03/21 05:19:04;;;;;;;44.17;19.42;;;8.80;99.90;;;;;;5074515;28;20044;-54
2023/03/21 05:21:40;;;;;;;52.28;21.17;;;8.60;99.90;;;;;;5074654;28;20444;-55
2023/03/21 05:24:10;;;;;;;53.03;20.52;;;8.60;99.90;;;;;;5074453;28;20052;-56
2023/03/21 05:26:37;;;;;;;56.10;21.25;;;6.80;99.90;;;;;;5074197;28;20061;-56
2023/03/21 05:29:03;;;;;;;55.85;21.33;;;9.00;99.90;;;;;;5075320;28;20046;-56
2023/03/21 05:31:29;;;;;;;47.40;19.95;;;8.80;99.90;;;;;;5074290;28;20036;-57
2023/03/21 05:33:54;;;;;;;55.95;22.63;;;8.70;99.90;;;;;;5075418;28;20050;-56
2023/03/21 05:36:20;;;;;;;62.85;22.83;;;8.60;99.90;;;;;;5073863;28;20553;-56
2023/03/21 05:38:46;;;;;;;53.50;21.13;;;8.80;99.90;;;;;;5074555;28;20079;-57
2023/03/21 05:41:13;;;;;;;52.30;21.95;;;8.60;99.90;;;;;;5073934;28;20044;-56
2023/03/21 05:43:39;;;;;;;44.80;19.35;;;8.70;99.90;;;;;;5073457;28;20036;-56
2023/03/21 05:46:05;;;;;;;45.67;19.48;;;8.60;99.90;;;;;;5073592;28;20039;-56
2023/03/21 05:48:31;;;;;;;43.17;18.23;;;8.80;99.90;;;;;;5074403;28;20036;-56
2023/03/21 05:50:56;;;;;;;46.90;19.73;;;9.20;99.90;;;;;;5073697;28;20050;-56
2023/03/21 05:53:22;;;;;;;43.60;18.75;;;8.70;99.90;;;;;;5072251;28;20097;-56
2023/03/21 05:55:48;;;;;;;48.28;19.88;;;8.70;99.90;;;;;;5072765;28;20048;-56
2023/03/21 05:58:14;;;;;;;45.90;17.98;;;9.20;99.90;;;;;;5073430;28;20138;-56
2023/03/21 06:00:39;;;;;;;51.45;19.48;;;8.80;99.90;;;;;;5072887;28;20044;-56
2023/03/21 06:03:05;;;;;;;45.75;19.50;;;8.90;99.90;;;;;;5073166;28;20051;-56
2023/03/21 06:05:31;;;;;;;41.05;16.48;;;8.70;99.90;;;;;;5074287;28;20052;-56
2023/03/21 06:07:57;;;;;;;39.03;17.08;;;9.00;99.90;;;;;;5075008;28;20040;-56
2023/03/21 06:10:23;;;;;;;37.22;17.92;;;8.70;99.90;;;;;;5074119;28;20056;-56
2023/03/21 06:12:49;;;;;;;41.58;17.27;;;8.70;99.90;;;;;;5074028;28;20116;-56
2023/03/21 06:15:15;;;;;;;40.05;16.70;;;8.80;99.90;;;;;;5073168;28;20140;-56
2023/03/21 06:17:41;;;;;;;43.60;16.83;;;9.30;99.90;;;;;;5074013;28;20657;-56
2023/03/21 06:20:07;;;;;;;35.38;15.95;;;8.70;99.90;;;;;;5072666;28;20142;-56
2023/03/21 06:22:34;;;;;;;40.38;16.98;;;8.80;99.90;;;;;;5073864;28;20071;-56
2023/03/21 06:25:00;;;;;;;35.55;16.13;;;8.90;99.90;;;;;;5074107;28;20035;-56
2023/03/21 06:27:26;;;;;;;37.80;17.05;;;8.90;99.90;;;;;;5073476;28;20047;-56
2023/03/21 06:29:52;;;;;;;40.45;16.80;;;8.70;99.90;;;;;;5073535;28;20048;-56
2023/03/21 06:32:18;;;;;;;47.40;18.15;;;8.80;99.90;;;;;;5071309;28;21258;-56
2023/03/21 06:34:43;;;;;;;45.22;18.73;;;8.70;99.90;;;;;;5071806;28;20036;-56
2023/03/21 06:37:09;;;;;;;42.53;18.40;;;7.70;99.90;;;;;;5073678;28;20396;-56
2023/03/21 06:39:35;;;;;;;46.40;19.55;;;8.90;99.90;;;;;;5072981;28;20093;-56
2023/03/21 06:42:01;;;;;;;38.60;17.58;;;8.90;99.90;;;;;;5072921;28;20040;-55
2023/03/21 06:44:27;;;;;;;34.85;17.38;;;8.90;99.90;;;;;;5071456;28;20044;-56
2023/03/21 06:46:53;;;;;;;38.45;16.35;;;8.90;99.90;;;;;;5073643;28;20047;-56
2023/03/21 06:49:19;;;;;;;36.45;17.00;;;9.10;99.90;;;;;;5053940;28;20186;-56
2023/03/21 06:51:45;;;;;;;41.08;17.92;;;9.00;99.90;;;;;;5072774;28;20078;-56
2023/03/21 06:54:12;;;;;;;43.45;18.30;;;9.00;99.90;;;;;;5072728;28;20119;-56
2023/03/21 06:56:38;;;;;;;35.33;16.92;;;9.00;99.90;;;;;;5073334;28;20448;-56
2023/03/21 06:59:03;;;;;;;36.03;17.17;;;9.00;99.90;;;;;;5071133;28;20139;-56
2023/03/21 07:01:29;;;;;;;43.08;18.40;;;9.00;99.90;;;;;;5072538;28;20036;-56
2023/03/21 07:03:57;;;;;;;33.80;16.33;;;8.80;99.90;;;;;;5072837;28;20048;-55
2023/03/21 07:06:25;;;;;;;37.13;17.08;;;9.10;99.90;;;;;;5073040;28;21276;-56
2023/03/21 07:08:52;;;;;;;36.30;17.63;;;9.10;99.90;;;;;;5072927;28;20277;-56
2023/03/21 07:11:19;;;;;;;33.42;16.73;;;9.10;99.90;;;;;;5072605;28;20108;-56
2023/03/21 07:13:45;;;;;;;35.05;17.77;;;9.10;99.90;;;;;;5071989;28;20123;-56
2023/03/21 07:16:11;;;;;;;31.15;15.45;;;9.20;99.90;;;;;;5073688;28;20085;-56
2023/03/21 07:18:37;;;;;;;30.60;16.15;;;10.00;99.90;;;;;;5073154;28;20512;-54
2023/03/21 07:21:03;;;;;;;27.80;16.05;;;9.20;99.90;;;;;;5071513;28;20044;-56
2023/03/21 07:23:29;;;;;;;26.33;14.40;;;9.20;99.90;;;;;;5073014;28;20459;-56
2023/03/21 07:25:55;;;;;;;26.27;14.68;;;9.10;99.90;;;;;;5074398;28;20101;-56
2023/03/21 07:28:22;;;;;;;27.05;14.48;;;9.90;99.90;;;;;;5077311;28;20715;-56
2023/03/21 07:30:56;;;;;;;30.05;15.48;;;9.20;99.90;;;;;;5077283;28;20043;-57
2023/03/21 07:33:23;;;;;;;28.77;14.65;;;9.20;99.90;;;;;;5077302;28;20341;-56
2023/03/21 07:35:50;;;;;;;25.92;14.80;;;9.10;99.90;;;;;;5076974;28;20035;-56
2023/03/21 07:38:16;;;;;;;20.70;12.55;;;9.10;99.90;;;;;;5078048;28;20051;-56
2023/03/21 07:40:43;;;;;;;20.45;13.55;;;9.20;99.90;;;;;;5076909;28;20040;-56
2023/03/21 07:43:09;;;;;;;22.67;12.82;;;9.20;99.90;;;;;;5077840;28;20048;-56
2023/03/21 07:45:34;;;;;;;18.50;11.65;;;9.00;99.90;;;;;;5076547;28;20036;-56
2023/03/21 07:48:00;;;;;;;21.70;13.70;;;9.10;99.90;;;;;;5076262;28;20036;-56
2023/03/21 07:50:26;;;;;;;22.30;12.23;;;9.10;99.90;;;;;;5077044;28;20051;-54
2023/03/21 07:52:53;;;;;;;17.65;11.45;;;9.30;99.90;;;;;;5075975;28;20389;-55
2023/03/21 07:55:19;;;;;;;17.77;11.82;;;9.20;99.90;;;;;;5076370;28;20405;-56
2023/03/21 07:57:45;;;;;;;17.45;10.85;;;9.30;99.90;;;;;;5076397;28;20040;-56
2023/03/21 08:00:12;;;;;;;14.23;9.60;;;9.10;99.90;;;;;;5075652;28;20659;-56
2023/03/21 08:02:38;;;;;;;15.43;10.57;;;9.20;99.90;;;;;;5076164;28;20119;-56
2023/03/21 08:05:04;;;;;;;14.75;9.85;;;9.30;99.90;;;;;;5075246;28;20048;-56
2023/03/21 08:07:31;;;;;;;15.57;10.10;;;9.30;99.90;;;;;;5075627;28;20047;-56
2023/03/21 08:09:57;;;;;;;15.25;10.32;;;9.40;99.90;;;;;;5075619;28;20595;-56
2023/03/21 08:12:22;;;;;;;14.07;9.70;;;9.30;99.90;;;;;;5068907;28;20200;-56
2023/03/21 08:14:48;;;;;;;14.13;9.63;;;9.50;99.90;;;;;;5076214;28;20411;-56
2023/03/21 08:17:14;;;;;;;13.48;9.30;;;9.30;99.90;;;;;;5074899;28;20036;-56
2023/03/21 08:19:40;;;;;;;14.07;9.93;;;9.20;99.90;;;;;;5074581;28;20773;-56
2023/03/21 08:22:05;;;;;;;13.98;9.32;;;9.20;99.90;;;;;;5075621;28;20101;-56
2023/03/21 08:24:32;;;;;;;12.63;9.50;;;9.30;99.90;;;;;;5075536;28;20048;-56
2023/03/21 08:27:00;;;;;;;14.23;9.98;;;10.60;99.90;;;;;;5074998;28;20042;-56
2023/03/21 08:29:26;;;;;;;14.90;10.60;;;9.20;99.90;;;;;;5074903;28;20036;-56
2023/03/21 08:31:52;;;;;;;12.57;9.13;;;9.40;99.90;;;;;;5074579;28;20134;-56
2023/03/21 08:34:18;;;;;;;14.13;10.25;;;9.20;99.90;;;;;;5075666;28;20036;-56
2023/03/21 08:36:45;;;;;;;13.93;9.63;;;9.30;99.90;;;;;;5074192;28;20078;-57
2023/03/21 08:39:11;;;;;;;12.68;9.05;;;9.30;99.90;;;;;;5076077;28;20105;-56
2023/03/21 08:41:37;;;;;;;15.07;10.38;;;9.00;99.90;;;;;;5074818;28;20568;-56
2023/03/21 08:44:05;;;;;;;14.00;10.10;;;9.20;99.90;;;;;;5075528;28;20044;-57
2023/03/21 08:46:31;;;;;;;12.07;9.40;;;9.10;99.90;;;;;;5075705;28;20047;-57
2023/03/21 08:48:57;;;;;;;13.68;9.43;;;9.20;99.90;;;;;;5074307;28;20036;-55
2023/03/21 08:51:23;;;;;;;14.52;11.02;;;9.20;99.90;;;;;;5074384;28;20076;-56
2023/03/21 08:53:50;;;;;;;13.82;9.68;;;9.30;99.90;;;;;;5074716;28;20177;-56
2023/03/21 08:56:17;;;;;;;14.05;9.95;;;9.30;99.90;;;;;;5075070;28;20047;-56
2023/03/21 08:58:43;;;;;;;15.45;10.23;;;9.30;99.90;;;;;;5075369;28;20450;-56
2023/03/21 09:01:10;;;;;;;15.18;10.25;;;10.60;99.90;;;;;;5074741;28;20184;-56
2023/03/21 09:03:37;;;;;;;17.25;11.25;;;9.40;99.90;;;;;;5088647;28;20044;-56
2023/03/21 09:06:03;;;;;;;20.95;13.15;;;9.90;99.90;;;;;;5074255;28;20058;-57
2023/03/21 09:08:29;;;;;;;26.58;14.90;;;9.50;99.90;;;;;;5077222;28;20048;-57
2023/03/21 09:10:55;;;;;;;22.55;14.88;;;9.40;99.90;;;;;;5074991;28;20122;-57
2023/03/21 09:13:22;;;;;;;21.73;13.88;;;9.40;99.90;;;;;;5074924;28;20036;-56
2023/03/21 09:15:48;;;;;;;24.02;16.45;;;9.50;99.90;;;;;;5074927;28;20048;-55
2023/03/21 09:18:16;;;;;;;21.23;15.02;;;9.50;99.90;;;;;;5075706;28;20054;-56
2023/03/21 09:20:45;;;;;;;28.77;18.23;;;9.50;99.90;;;;;;5075542;28;20186;-57
2023/03/21 09:23:14;;;;;;;24.15;17.20;;;9.40;99.90;;;;;;5074842;28;20047;-57
2023/03/21 09:25:43;;;;;;;20.67;15.95;;;9.50;99.90;;;;;;5074749;28;20492;-56
2023/03/21 09:28:09;;;;;;;22.75;15.82;;;9.50;99.90;;;;;;5074844;28;20131;-56
2023/03/21 09:30:36;;;;;;;22.42;17.52;;;9.40;99.90;;;;;;5074610;28;20427;-56
2023/03/21 09:33:07;;;;;;;22.55;16.80;;;9.50;99.90;;;;;;5073172;28;20044;-56
2023/03/21 09:35:33;;;;;;;24.15;19.02;;;9.60;99.90;;;;;;5073905;28;20101;-57
2023/03/21 09:38:00;;;;;;;26.42;19.25;;;9.60;99.90;;;;;;5074414;28;20811;-57
2023/03/21 09:40:53;;;;;;;27.00;19.90;;;9.40;99.90;;;;;;5074512;28;20065;-56
2023/03/21 09:43:51;;;;;;;30.65;19.13;;;9.60;99.90;;;;;;5074531;28;20032;-56
2023/03/21 09:46:41;;;;;;;29.27;20.13;;;9.70;99.90;;;;;;5073034;28;20127;-56
2023/03/21 09:49:20;;;;;;;29.10;20.58;;;9.70;99.90;;;;;;5071670;28;20131;-56
2023/03/21 09:51:52;;;;;;;28.55;19.00;;;9.50;99.90;;;;;;5074252;28;20572;-56
2023/03/21 09:54:51;;;;;;;28.15;19.52;;;9.60;99.90;;;;;;5074203;28;20040;-56
2023/03/21 09:57:29;;;;;;;27.95;18.40;;;9.50;99.90;;;;;;5054633;28;20067;-57
2023/03/21 09:59:58;;;;;;;28.60;18.48;;;7.20;99.90;;;;;;5073961;28;20048;-56
2023/03/21 10:02:45;;;;;;;23.23;15.57;;;9.40;99.90;;;;;;5073955;28;20036;-56
2023/03/21 10:05:20;;;;;;;27.27;16.92;;;9.60;99.90;;;;;;5073642;28;20052;-57
2023/03/21 10:07:54;;;;;;;26.98;17.15;;;9.50;99.90;;;;;;5072329;28;20131;-57
2023/03/21 10:10:30;;;;;;;26.02;18.05;;;11.40;99.90;;;;;;5072194;28;20039;-55
2023/03/21 10:12:56;;;;;;;28.77;18.55;;;9.40;99.90;;;;;;5072116;28;20047;-57
2023/03/21 10:15:24;;;;;;;29.10;17.17;;;9.50;99.90;;;;;;5070641;28;24019;-56
2023/03/21 10:17:55;;;;;;;30.13;18.48;;;9.50;99.90;;;;;;5072570;28;20658;-56
2023/03/21 10:20:30;;;;;;;27.70;17.20;;;9.50;99.90;;;;;;5072502;28;20059;-56
2023/03/21 10:22:59;;;;;;;26.05;16.98;;;9.60;99.90;;;;;;5070914;28;20493;-57
2023/03/21 10:25:34;;;;;;;24.65;14.68;;;9.70;99.90;;;;;;5071287;28;20059;-56
2023/03/21 10:28:02;;;;;;;23.30;15.38;;;9.60;99.90;;;;;;5071551;28;20036;-57
2023/03/21 10:30:41;;;;;;;25.92;17.00;;;9.70;99.90;;;;;;5071939;28;20043;-57
2023/03/21 10:33:26;;;;;;;25.08;15.45;;;9.80;99.90;;;;;;5072068;28;20078;-57
2023/03/21 10:35:57;;;;;;;19.75;14.93;;;9.70;99.90;;;;;;5072740;28;20415;-56
2023/03/21 10:38:25;;;;;;;20.25;15.07;;;9.70;99.90;;;;;;5072726;28;20163;-57
2023/03/21 10:40:52;;;;;;;24.25;16.30;;;9.90;99.90;;;;;;5073590;28;20055;-56
2023/03/21 10:43:26;;;;;;;25.73;15.10;;;10.10;99.90;;;;;;5073057;28;20686;-56
2023/03/21 10:45:54;;;;;;;23.50;13.35;;;10.20;99.90;;;;;;5073821;28;20417;-56
2023/03/21 10:48:21;;;;;;;26.10;14.50;;;10.10;99.90;;;;;;5072779;28;20071;-56
2023/03/21 10:50:51;;;;;;;24.20;13.90;;;10.10;99.90;;;;;;5072464;28;20047;-56
2023/03/21 10:53:32;;;;;;;20.33;12.35;;;10.40;99.90;;;;;;5072005;28;20050;-56
2023/03/21 10:56:00;;;;;;;22.00;13.00;;;10.30;99.90;;;;;;5072761;28;20132;-56
2023/03/21 10:58:29;;;;;;;21.35;13.18;;;10.40;99.90;;;;;;5072654;28;20043;-56
2023/03/21 11:01:03;;;;;;;22.23;13.52;;;10.40;99.90;;;;;;5071189;28;20050;-56
2023/03/21 11:03:42;;;;;;;21.05;12.00;;;10.60;99.90;;;;;;5072506;28;20131;-56
2023/03/21 11:06:21;;;;;;;17.08;11.00;;;10.70;99.90;;;;;;5071561;28;20061;-56
2023/03/21 11:08:50;;;;;;;20.17;11.10;;;10.70;99.90;;;;;;5071687;28;20070;-57
2023/03/21 11:11:26;;;;;;;19.95;10.57;;;10.70;99.90;;;;;;5071299;28;21073;-56
2023/03/21 11:14:33;;;;;;;20.42;10.90;;;10.90;99.90;;;;;;5071151;28;20055;-57
2023/03/21 11:16:59;;;;;;;17.92;10.77;;;10.80;99.90;;;;;;5071382;28;20048;-57
2023/03/21 11:19:31;;;;;;;16.13;10.00;;;11.10;99.90;;;;;;5070732;28;20109;-56
2023/03/21 11:21:58;;;;;;;19.58;10.70;;;10.70;99.90;;;;;;5070759;28;20158;-57
2023/03/21 11:24:29;;;;;;;17.95;10.27;;;10.90;99.90;;;;;;5071646;28;20044;-56
2023/03/21 11:26:56;;;;;;;16.83;10.40;;;11.00;99.90;;;;;;5071772;28;20076;-57
2023/03/21 11:29:27;;;;;;;17.40;10.32;;;10.90;99.90;;;;;;5072240;28;20079;-57
2023/03/21 11:31:58;;;;;;;15.73;9.77;;;11.00;99.90;;;;;;5070273;28;20394;-57
2023/03/21 11:34:46;;;;;;;14.32;9.27;;;10.90;99.90;;;;;;5070686;28;20297;-57
2023/03/21 11:37:40;;;;;;;16.13;8.65;;;11.00;99.90;;;;;;5071223;28;20181;-57
2023/03/21 11:40:22;;;;;;;19.30;8.80;;;11.00;99.90;;;;;;5064816;28;20079;-57
2023/03/21 11:42:50;;;;;;;19.80;9.40;;;11.10;99.90;;;;;;5070345;28;20044;-57
2023/03/21 11:45:18;;;;;;;16.90;8.13;;;11.00;99.90;;;;;;5071467;28;20044;-57
2023/03/21 11:47:45;;;;;;;16.33;8.77;;;11.20;99.90;;;;;;5071817;28;20080;-57
2023/03/21 11:50:16;;;;;;;16.63;8.55;;;11.20;99.90;;;;;;5087004;28;20070;-57
2023/03/21 11:53:05;;;;;;;14.77;9.55;;;11.10;99.90;;;;;;5072722;28;20039;-58
2023/03/21 11:55:30;;;;;;;16.92;9.90;;;11.00;99.90;;;;;;5072068;28;20048;-57
2023/03/21 11:58:24;;;;;;;17.10;9.57;;;10.90;99.90;;;;;;5072393;28;20047;-57
2023/03/21 12:00:58;;;;;;;16.00;9.20;;;11.10;99.90;;;;;;5072229;28;20059;-55
2023/03/21 12:03:37;;;;;;;18.23;8.65;;;11.30;99.90;;;;;;5071491;28;20214;-57
2023/03/21 12:06:13;;;;;;;20.13;9.85;;;11.30;99.90;;;;;;5071208;28;20048;-57
2023/03/21 12:09:13;;;;;;;18.70;10.02;;;11.20;99.90;;;;;;5072910;28;20032;-56
2023/03/21 12:11:58;;;;;;;15.65;8.75;;;11.30;99.90;;;;;;5072836;28;20039;-57
2023/03/21 12:14:35;;;;;;;18.92;8.98;;;11.30;99.90;;;;;;5074559;28;20332;-57
2023/03/21 12:17:35;;;;;;;16.23;9.00;;;9.10;99.90;;;;;;5074636;28;20206;-57
2023/03/21 12:20:10;;;;;;;13.50;8.60;;;11.10;99.90;;;;;;5074158;28;20060;-57
2023/03/21 12:22:58;;;;;;;15.70;7.63;;;11.20;99.90;;;;;;5072611;28;20044;-56
2023/03/21 12:25:30;;;;;;;16.70;8.30;;;11.00;99.90;;;;;;5073797;28;20047;-57
2023/03/21 12:28:34;;;;;;;17.30;8.48;;;10.90;99.90;;;;;;5073114;28;20051;-56
2023/03/21 12:31:25;;;;;;;18.73;8.68;;;10.90;99.90;;;;;;5071677;28;20121;-57
2023/03/21 12:34:12;;;;;;;17.73;8.95;;;11.10;99.90;;;;;;5073070;28;20059;-56
2023/03/21 12:36:43;;;;;;;15.63;7.90;;;10.90;99.90;;;;;;5071867;28;20067;-56
2023/03/21 12:39:33;;;;;;;17.10;8.52;;;11.00;99.90;;;;;;5072107;28;20035;-56
2023/03/21 12:42:19;;;;;;;17.63;9.07;;;11.20;99.90;;;;;;5071064;28;20053;-57
2023/03/21 12:45:03;;;;;;;16.25;8.20;;;11.10;99.90;;;;;;5072739;28;20131;-57
2023/03/21 12:47:32;;;;;;;14.40;8.15;;;11.10;99.90;;;;;;5072262;28;20040;-57
2023/03/21 12:50:31;;;;;;;15.88;8.20;;;11.30;99.90;;;;;;5073267;28;20052;-56
2023/03/21 12:53:02;;;;;;;17.08;7.85;;;11.30;99.90;;;;;;5070888;28;20179;-57
2023/03/21 12:55:32;;;;;;;15.37;7.77;;;11.40;99.90;;;;;;5069612;28;20048;-57